Time;durP1;ratioP1;P1;durP2;ratioP2;P2;SDS_P1;SDS_P2;PMS_P1;PMS_P2;Temp;Humidity;BMP_temperature;BMP_pressure;BME280_temperature;BME280_humidity;BME280_pressure;Samples;Min_cycle;Max_cycle;Signal;HPM_P1;HPM_P2
2023/08/03 00:02:19;;;;;;;4.18;1.20;;;;;;;;;;5021056;28;20280;-75
2023/08/03 00:04:44;;;;;;;2.40;0.93;;;;;;;;;;5021089;28;20030;-76
2023/08/03 00:07:09;;;;;;;4.27;1.20;;;;;;;;;;5020968;28;20490;-76
2023/08/03 00:09:34;;;;;;;2.57;1.03;;;;;;;;;;5020163;28;20354;-76
2023/08/03 00:11:59;;;;;;;3.00;1.30;;;;;;;;;;5020896;28;20283;-76
2023/08/03 00:14:25;;;;;;;3.37;1.20;;;;;;;;;;5023667;28;20276;-76
2023/08/03 00:16:50;;;;;;;9.63;1.10;;;;;;;;;;5021078;28;20651;-76
2023/08/03 00:19:15;;;;;;;5.80;1.17;;;;;;;;;;5022199;28;20061;-76
2023/08/03 00:21:40;;;;;;;3.05;0.98;;;;;;;;;;5022484;28;20311;-76
2023/08/03 00:24:05;;;;;;;2.92;0.98;;;;;;;;;;5024845;28;20085;-76
2023/08/03 00:26:31;;;;;;;2.67;0.87;;;;;;;;;;5028904;28;20033;-76
2023/08/03 00:28:56;;;;;;;3.05;1.08;;;;;;;;;;5024284;28;20272;-76
2023/08/03 00:31:22;;;;;;;3.75;1.10;;;;;;;;;;5026997;28;20522;-76
2023/08/03 00:33:47;;;;;;;4.15;1.02;;;;;;;;;;5022849;28;20087;-76
2023/08/03 00:36:12;;;;;;;5.80;1.00;;;;;;;;;;5028010;28;20045;-76
2023/08/03 00:38:37;;;;;;;5.63;1.50;;;;;;;;;;5028236;28;20305;-76
2023/08/03 00:41:03;;;;;;;5.28;1.02;;;;;;;;;;5024464;28;20366;-76
2023/08/03 00:43:29;;;;;;;2.97;1.23;;;;;;;;;;5028048;28;20021;-76
2023/08/03 00:45:54;;;;;;;6.50;1.50;;;;;;;;;;5027793;28;20032;-76
2023/08/03 00:48:19;;;;;;;6.65;1.20;;;;;;;;;;5025914;28;20032;-76
2023/08/03 00:50:44;;;;;;;3.42;1.13;;;;;;;;;;5025488;28;20419;-76
2023/08/03 00:53:10;;;;;;;3.08;0.85;;;;;;;;;;5021997;28;20116;-76
2023/08/03 00:55:35;;;;;;;2.90;1.02;;;;;;;;;;5022800;28;20084;-76
2023/08/03 00:58:00;;;;;;;4.28;1.00;;;;;;;;;;5025518;28;20624;-76
2023/08/03 01:00:25;;;;;;;4.30;1.30;;;;;;;;;;5024578;28;20538;-76
2023/08/03 01:02:51;;;;;;;4.82;1.20;;;;;;;;;;5021172;28;20084;-76
2023/08/03 01:05:16;;;;;;;5.78;1.13;;;;;;;;;;5025706;28;20108;-76
2023/08/03 01:07:41;;;;;;;2.92;0.88;;;;;;;;;;5022383;28;20034;-76
2023/08/03 01:10:07;;;;;;;5.57;1.13;;;;;;;;;;5024698;28;20029;-76
2023/08/03 01:12:33;;;;;;;5.00;1.33;;;;;;;;;;5020903;28;20160;-76
2023/08/03 01:14:58;;;;;;;3.90;1.10;;;;;;;;;;5025596;28;20037;-76
2023/08/03 01:17:25;;;;;;;5.05;1.20;;;;;;;;;;5020381;28;20040;-76
2023/08/03 01:19:50;;;;;;;4.28;1.13;;;;;;;;;;5022384;28;20037;-75
2023/08/03 01:22:16;;;;;;;3.17;1.35;;;;;;;;;;5021069;28;20695;-76
2023/08/03 01:24:41;;;;;;;4.00;1.10;;;;;;;;;;5025035;28;20032;-76
2023/08/03 01:27:07;;;;;;;10.48;1.60;;;;;;;;;;5020510;28;20116;-76
2023/08/03 01:29:32;;;;;;;6.90;1.40;;;;;;;;;;5022642;28;20072;-76
2023/08/03 01:31:58;;;;;;;2.80;1.05;;;;;;;;;;5021923;28;20037;-76
2023/08/03 01:34:24;;;;;;;7.05;1.38;;;;;;;;;;5022936;28;20033;-77
2023/08/03 01:36:49;;;;;;;5.68;1.23;;;;;;;;;;5023552;28;20033;-77
2023/08/03 01:39:14;;;;;;;6.10;1.10;;;;;;;;;;5022351;28;20033;-77
2023/08/03 01:41:41;;;;;;;8.13;1.27;;;;;;;;;;5020781;28;20045;-76
2023/08/03 01:44:25;;;;;;;3.17;0.93;;;;;;;;;;5023722;28;20033;-76
2023/08/03 01:46:50;;;;;;;5.47;1.00;;;;;;;;;;5023575;28;20052;-76
2023/08/03 01:49:16;;;;;;;7.50;1.35;;;;;;;;;;5022996;28;20392;-76
2023/08/03 01:51:41;;;;;;;6.88;1.45;;;;;;;;;;5022577;28;20175;-76
2023/08/03 01:54:07;;;;;;;7.38;1.17;;;;;;;;;;5023666;28;20116;-76
2023/08/03 01:56:32;;;;;;;3.08;0.90;;;;;;;;;;5024618;28;20037;-76
2023/08/03 01:58:57;;;;;;;4.57;1.30;;;;;;;;;;5019069;28;20038;-76
2023/08/03 02:01:23;;;;;;;5.88;1.23;;;;;;;;;;5022903;28;20029;-76
2023/08/03 02:03:48;;;;;;;5.68;1.63;;;;;;;;;;5017010;28;20026;-76
2023/08/03 02:06:14;;;;;;;3.13;0.77;;;;;;;;;;5022772;28;20025;-76
2023/08/03 02:08:39;;;;;;;7.03;1.30;;;;;;;;;;5019874;28;20044;-76
2023/08/03 02:11:04;;;;;;;4.33;1.20;;;;;;;;;;5025836;28;20059;-76
2023/08/03 02:13:30;;;;;;;8.63;1.27;;;;;;;;;;5020232;28;20296;-76
2023/08/03 02:15:55;;;;;;;3.90;1.48;;;;;;;;;;5024139;28;20448;-76
2023/08/03 02:18:20;;;;;;;5.20;1.00;;;;;;;;;;5024399;28;20540;-76
2023/08/03 02:20:46;;;;;;;6.38;1.08;;;;;;;;;;5021202;28;20280;-76
2023/08/03 02:23:11;;;;;;;5.77;1.40;;;;;;;;;;5022858;28;20030;-76
2023/08/03 02:25:36;;;;;;;4.78;1.10;;;;;;;;;;5023231;28;21030;-77
2023/08/03 02:28:01;;;;;;;4.87;0.97;;;;;;;;;;5023896;28;20036;-76
2023/08/03 02:30:27;;;;;;;4.25;0.95;;;;;;;;;;5020709;28;20277;-76
2023/08/03 02:32:52;;;;;;;6.55;1.13;;;;;;;;;;5022920;28;20458;-76
2023/08/03 02:35:20;;;;;;;4.45;1.02;;;;;;;;;;5020488;28;20117;-76
2023/08/03 02:37:47;;;;;;;3.80;1.00;;;;;;;;;;5020622;28;20025;-76
2023/08/03 02:40:17;;;;;;;5.47;1.13;;;;;;;;;;5020674;28;20123;-76
2023/08/03 02:42:43;;;;;;;6.05;1.23;;;;;;;;;;5022141;28;20658;-76
2023/08/03 02:45:08;;;;;;;5.13;1.40;;;;;;;;;;5021095;28;20022;-76
2023/08/03 02:47:34;;;;;;;4.53;1.30;;;;;;;;;;5021718;28;20025;-76
2023/08/03 02:50:00;;;;;;;5.07;1.40;;;;;;;;;;5020094;28;20065;-76
2023/08/03 02:52:25;;;;;;;4.57;1.10;;;;;;;;;;5021311;28;20043;-76
2023/08/03 02:54:50;;;;;;;4.68;1.27;;;;;;;;;;5019196;28;20026;-76
2023/08/03 02:57:18;;;;;;;5.13;1.48;;;;;;;;;;5024420;28;20036;-76
2023/08/03 02:59:46;;;;;;;3.63;1.25;;;;;;;;;;5021510;28;20061;-76
2023/08/03 03:02:13;;;;;;;4.90;1.35;;;;;;;;;;5021908;28;20029;-76
2023/08/03 03:04:40;;;;;;;3.90;1.00;;;;;;;;;;5019043;28;20058;-76
2023/08/03 03:07:05;;;;;;;9.82;1.58;;;;;;;;;;5025583;28;20088;-76
2023/08/03 03:09:31;;;;;;;6.47;1.60;;;;;;;;;;5005301;28;20021;-76
2023/08/03 03:11:58;;;;;;;4.82;1.20;;;;;;;;;;5020902;28;20376;-76
2023/08/03 03:14:37;;;;;;;6.25;1.15;;;;;;;;;;5021172;28;20026;-76
2023/08/03 03:17:03;;;;;;;4.60;1.02;;;;;;;;;;5027285;28;20456;-76
2023/08/03 03:19:28;;;;;;;5.20;1.15;;;;;;;;;;5024978;28;20050;-76
2023/08/03 03:21:55;;;;;;;7.18;1.20;;;;;;;;;;5036867;28;20030;-77
2023/08/03 03:24:20;;;;;;;6.43;1.02;;;;;;;;;;5024811;28;20025;-76
2023/08/03 03:26:46;;;;;;;6.43;1.30;;;;;;;;;;5030815;28;20025;-76
2023/08/03 03:29:11;;;;;;;7.68;1.65;;;;;;;;;;5027144;28;20714;-76
2023/08/03 03:31:36;;;;;;;7.78;1.95;;;;;;;;;;5024472;28;20614;-76
2023/08/03 03:34:03;;;;;;;4.68;1.27;;;;;;;;;;5023153;28;20113;-76
2023/08/03 03:36:29;;;;;;;4.28;1.15;;;;;;;;;;5021658;28;20025;-76
2023/08/03 03:38:54;;;;;;;6.65;1.15;;;;;;;;;;5001267;28;20030;-76
2023/08/03 03:41:20;;;;;;;5.45;1.30;;;;;;;;;;5022622;28;20449;-76
2023/08/03 03:43:46;;;;;;;3.67;1.02;;;;;;;;;;5020735;28;20029;-76
2023/08/03 03:46:12;;;;;;;7.03;1.83;;;;;;;;;;5025260;28;20078;-76
2023/08/03 03:48:37;;;;;;;3.88;1.00;;;;;;;;;;5022267;28;20040;-77
2023/08/03 03:51:03;;;;;;;5.88;1.15;;;;;;;;;;5018605;28;20112;-76
2023/08/03 03:53:30;;;;;;;6.38;1.50;;;;;;;;;;5020283;28;20080;-76
2023/08/03 03:55:57;;;;;;;7.43;1.65;;;;;;;;;;5032777;28;20041;-77
2023/08/03 03:58:23;;;;;;;6.32;1.73;;;;;;;;;;5024107;28;20029;-77
2023/08/03 04:00:48;;;;;;;6.47;1.50;;;;;;;;;;5024461;28;20501;-76
2023/08/03 04:03:14;;;;;;;2.78;0.90;;;;;;;;;;5024036;28;20029;-76
2023/08/03 04:05:39;;;;;;;4.13;0.98;;;;;;;;;;5027316;28;20048;-76
2023/08/03 04:08:05;;;;;;;7.93;1.30;;;;;;;;;;5024829;28;20466;-76
2023/08/03 04:10:31;;;;;;;7.65;1.25;;;;;;;;;;5024278;28;20289;-76
2023/08/03 04:12:57;;;;;;;6.65;1.88;;;;;;;;;;5024767;28;20088;-76
2023/08/03 04:15:23;;;;;;;3.72;1.42;;;;;;;;;;5034570;28;20640;-76
2023/08/03 04:17:49;;;;;;;4.40;1.30;;;;;;;;;;5032798;28;20068;-76
2023/08/03 04:20:16;;;;;;;4.65;1.52;;;;;;;;;;5024100;28;20095;-76
2023/08/03 04:22:44;;;;;;;7.07;1.63;;;;;;;;;;5021796;28;20045;-76
2023/08/03 04:25:10;;;;;;;8.02;1.40;;;;;;;;;;5033079;28;20112;-76
2023/08/03 04:27:36;;;;;;;8.02;1.35;;;;;;;;;;5026883;28;20198;-76
2023/08/03 04:30:01;;;;;;;9.00;1.63;;;;;;;;;;5032167;28;20079;-76
2023/08/03 04:32:31;;;;;;;8.63;1.95;;;;;;;;;;5026857;28;20039;-76
2023/08/03 04:34:57;;;;;;;5.75;1.50;;;;;;;;;;5024530;28;20710;-76
2023/08/03 04:37:22;;;;;;;5.22;1.10;;;;;;;;;;5024063;28;20045;-76
2023/08/03 04:39:49;;;;;;;6.72;1.55;;;;;;;;;;5023277;28;20036;-77
2023/08/03 04:42:15;;;;;;;6.88;1.92;;;;;;;;;;5021526;28;20022;-76
2023/08/03 04:44:40;;;;;;;6.38;1.10;;;;;;;;;;5028188;28;20032;-76
2023/08/03 04:47:05;;;;;;;5.55;1.63;;;;;;;;;;5029369;28;20112;-76
2023/08/03 04:49:30;;;;;;;6.35;1.48;;;;;;;;;;5024747;28;20026;-76
2023/08/03 04:51:57;;;;;;;5.72;1.30;;;;;;;;;;5022803;28;20026;-76
2023/08/03 04:54:23;;;;;;;7.32;1.40;;;;;;;;;;5023945;28;20022;-76
2023/08/03 04:56:48;;;;;;;4.88;1.30;;;;;;;;;;5032138;28;20024;-76
2023/08/03 04:59:14;;;;;;;7.18;1.58;;;;;;;;;;5029084;28;20063;-76
2023/08/03 05:01:40;;;;;;;7.13;1.65;;;;;;;;;;5026282;28;20061;-76
2023/08/03 05:04:06;;;;;;;5.47;1.95;;;;;;;;;;5023600;28;20025;-76
2023/08/03 05:06:31;;;;;;;7.90;1.40;;;;;;;;;;5024141;28;20025;-76
2023/08/03 05:08:57;;;;;;;7.15;1.40;;;;;;;;;;5030270;28;20485;-76
2023/08/03 05:11:25;;;;;;;6.55;2.13;;;;;;;;;;5020461;28;20382;-76
2023/08/03 05:13:50;;;;;;;9.75;2.55;;;;;;;;;;5023073;28;20031;-76
2023/08/03 05:16:22;;;;;;;5.03;1.20;;;;;;;;;;5021457;28;20744;-76
2023/08/03 05:18:47;;;;;;;4.97;1.58;;;;;;;;;;5024919;28;21045;-77
2023/08/03 05:21:12;;;;;;;3.83;1.35;;;;;;;;;;5025220;28;20022;-77
2023/08/03 05:23:38;;;;;;;4.63;1.30;;;;;;;;;;5016853;28;20026;-76
2023/08/03 05:26:03;;;;;;;7.07;1.80;;;;;;;;;;5021447;28;20030;-77
2023/08/03 05:28:28;;;;;;;8.55;1.35;;;;;;;;;;5025181;28;20033;-76
2023/08/03 05:30:53;;;;;;;5.43;1.33;;;;;;;;;;5023078;28;20048;-76
2023/08/03 05:33:18;;;;;;;7.13;1.50;;;;;;;;;;5026364;28;20514;-76
2023/08/03 05:35:46;;;;;;;3.50;0.80;;;;;;;;;;5031144;28;20048;-76
2023/08/03 05:38:13;;;;;;;5.72;1.48;;;;;;;;;;5030172;28;20041;-76
2023/08/03 05:40:39;;;;;;;5.75;1.40;;;;;;;;;;5023865;28;20049;-76
2023/08/03 05:43:08;;;;;;;6.88;1.20;;;;;;;;;;5023958;28;20033;-76
2023/08/03 05:45:36;;;;;;;5.20;1.10;;;;;;;;;;5024965;28;20467;-76
2023/08/03 05:48:02;;;;;;;7.28;1.20;;;;;;;;;;5031257;28;20484;-77
2023/08/03 05:50:28;;;;;;;5.88;1.15;;;;;;;;;;5024349;28;20036;-76
2023/08/03 05:52:54;;;;;;;7.63;1.15;;;;;;;;;;5021422;28;20038;-76
2023/08/03 05:55:19;;;;;;;6.05;1.15;;;;;;;;;;5027381;28;20554;-76
2023/08/03 05:57:44;;;;;;;8.02;1.17;;;;;;;;;;5024827;28;20120;-76
2023/08/03 06:00:15;;;;;;;8.65;1.67;;;;;;;;;;5023904;28;20128;-76
2023/08/03 06:02:40;;;;;;;6.68;1.23;;;;;;;;;;5024653;28;20042;-77
2023/08/03 06:05:06;;;;;;;4.15;1.20;;;;;;;;;;5024118;28;20448;-77
2023/08/03 06:07:31;;;;;;;7.20;1.23;;;;;;;;;;5029048;28;20034;-77
2023/08/03 06:09:57;;;;;;;4.07;1.05;;;;;;;;;;5026242;28;20021;-76
2023/08/03 06:12:22;;;;;;;5.70;1.20;;;;;;;;;;5025003;28;20547;-77
2023/08/03 06:14:47;;;;;;;7.53;1.85;;;;;;;;;;5029581;28;20029;-76
2023/08/03 06:17:13;;;;;;;5.57;1.17;;;;;;;;;;5038339;28;20033;-77
2023/08/03 06:19:38;;;;;;;5.97;1.10;;;;;;;;;;5020423;28;20111;-77
2023/08/03 06:22:04;;;;;;;4.50;1.13;;;;;;;;;;5025948;28;20450;-76
2023/08/03 06:24:29;;;;;;;5.25;1.25;;;;;;;;;;5022548;28;20024;-76
2023/08/03 06:26:57;;;;;;;5.65;1.10;;;;;;;;;;5025674;28;20393;-76
2023/08/03 06:29:22;;;;;;;9.70;1.50;;;;;;;;;;5020222;28;20481;-76
2023/08/03 06:31:47;;;;;;;4.00;1.03;;;;;;;;;;5022276;28;20079;-76
2023/08/03 06:34:12;;;;;;;4.80;0.83;;;;;;;;;;5019603;28;20318;-76
2023/08/03 06:36:40;;;;;;;4.85;1.15;;;;;;;;;;5026231;28;20277;-76
2023/08/03 06:39:05;;;;;;;9.45;2.35;;;;;;;;;;5021930;28;20030;-77
2023/08/03 06:41:30;;;;;;;4.70;1.20;;;;;;;;;;5023880;28;20037;-77
2023/08/03 06:43:56;;;;;;;5.20;1.50;;;;;;;;;;5030609;28;20299;-76
2023/08/03 06:46:21;;;;;;;3.28;0.90;;;;;;;;;;5022643;28;20037;-76
2023/08/03 06:48:46;;;;;;;4.88;1.10;;;;;;;;;;5024812;28;20033;-76
2023/08/03 06:51:11;;;;;;;8.77;1.20;;;;;;;;;;5021299;28;20025;-77
2023/08/03 06:53:37;;;;;;;4.83;1.13;;;;;;;;;;5019685;28;20025;-77
2023/08/03 06:56:03;;;;;;;7.20;1.60;;;;;;;;;;5021504;28;20817;-76
2023/08/03 06:58:28;;;;;;;6.13;1.20;;;;;;;;;;5025526;28;20029;-77
2023/08/03 07:00:53;;;;;;;7.63;1.15;;;;;;;;;;5025411;28;20033;-76
2023/08/03 07:03:18;;;;;;;3.90;0.90;;;;;;;;;;5021848;28;20109;-76
2023/08/03 07:05:44;;;;;;;6.22;1.23;;;;;;;;;;5021570;28;20026;-76
2023/08/03 07:08:10;;;;;;;7.07;1.30;;;;;;;;;;5021851;28;20400;-76
2023/08/03 07:10:35;;;;;;;4.18;0.88;;;;;;;;;;5024179;28;20229;-77
2023/08/03 07:13:01;;;;;;;4.18;0.90;;;;;;;;;;5021103;28;20113;-77
2023/08/03 07:15:26;;;;;;;3.53;0.80;;;;;;;;;;5021007;28;20037;-77
2023/08/03 07:17:51;;;;;;;5.03;0.88;;;;;;;;;;5025179;28;20037;-77
2023/08/03 07:20:18;;;;;;;4.70;0.80;;;;;;;;;;5023190;28;20037;-76
2023/08/03 07:22:45;;;;;;;4.70;0.90;;;;;;;;;;5016701;28;20048;-77
2023/08/03 07:25:10;;;;;;;6.30;1.63;;;;;;;;;;5023908;28;20045;-77
2023/08/03 07:27:36;;;;;;;4.70;1.00;;;;;;;;;;5021960;28;20408;-77
2023/08/03 07:30:01;;;;;;;3.85;0.77;;;;;;;;;;5019300;28;20037;-76
2023/08/03 07:32:26;;;;;;;5.22;0.90;;;;;;;;;;5023247;28;20029;-76
2023/08/03 07:34:52;;;;;;;6.40;0.93;;;;;;;;;;5022154;28;20030;-77
2023/08/03 07:37:17;;;;;;;5.47;0.70;;;;;;;;;;5026611;28;20268;-77
2023/08/03 07:39:42;;;;;;;5.97;0.98;;;;;;;;;;5019202;28;20113;-77
2023/08/03 07:42:07;;;;;;;4.72;0.68;;;;;;;;;;5024093;28;20798;-77
2023/08/03 07:44:32;;;;;;;3.63;0.60;;;;;;;;;;5019664;28;20038;-76
2023/08/03 07:46:58;;;;;;;3.50;0.73;;;;;;;;;;5020872;28;20116;-77
2023/08/03 07:49:23;;;;;;;3.78;0.90;;;;;;;;;;5022311;28;20347;-77
2023/08/03 07:51:48;;;;;;;5.07;0.80;;;;;;;;;;5019250;28;20061;-77
2023/08/03 07:54:14;;;;;;;3.92;0.90;;;;;;;;;;5028798;28;20312;-77
2023/08/03 07:56:39;;;;;;;2.42;0.80;;;;;;;;;;5017661;28;20037;-77
2023/08/03 07:59:05;;;;;;;4.72;0.75;;;;;;;;;;5024214;28;20068;-77
2023/08/03 08:01:30;;;;;;;3.60;0.85;;;;;;;;;;5019073;28;20088;-77
2023/08/03 08:03:55;;;;;;;1.45;0.50;;;;;;;;;;5024018;28;20034;-77
2023/08/03 08:06:20;;;;;;;4.50;1.03;;;;;;;;;;5023055;28;20373;-77
2023/08/03 08:08:47;;;;;;;5.53;1.13;;;;;;;;;;5021870;28;20769;-77
2023/08/03 08:11:14;;;;;;;4.13;0.70;;;;;;;;;;5027559;28;20318;-77
2023/08/03 08:13:39;;;;;;;4.95;0.93;;;;;;;;;;5019953;28;20057;-77
2023/08/03 08:16:06;;;;;;;4.07;0.75;;;;;;;;;;5021966;28;20115;-77
2023/08/03 08:18:31;;;;;;;3.60;0.80;;;;;;;;;;5019655;28;20062;-77
2023/08/03 08:20:57;;;;;;;5.40;0.93;;;;;;;;;;5022909;28;20448;-77
2023/08/03 08:23:22;;;;;;;3.33;0.88;;;;;;;;;;5024404;28;20030;-77
2023/08/03 08:25:48;;;;;;;3.40;0.60;;;;;;;;;;5030257;28;20369;-77
2023/08/03 08:28:13;;;;;;;4.97;0.90;;;;;;;;;;5023074;28;20758;-77
2023/08/03 08:30:38;;;;;;;3.42;0.75;;;;;;;;;;5028112;28;20335;-77
2023/08/03 08:33:03;;;;;;;3.07;0.70;;;;;;;;;;5021835;28;20030;-77
2023/08/03 08:35:29;;;;;;;1.83;0.50;;;;;;;;;;5024507;28;20338;-77
2023/08/03 08:37:54;;;;;;;1.67;0.50;;;;;;;;;;5024930;28;20284;-77
2023/08/03 08:40:19;;;;;;;3.65;0.85;;;;;;;;;;5025074;28;20663;-77
2023/08/03 08:42:51;;;;;;;3.08;0.60;;;;;;;;;;5027030;28;20057;-77
2023/08/03 08:45:16;;;;;;;5.10;0.63;;;;;;;;;;5026329;28;20041;-77
2023/08/03 08:47:41;;;;;;;5.30;0.93;;;;;;;;;;5031079;28;20025;-77
2023/08/03 08:50:06;;;;;;;3.58;0.50;;;;;;;;;;5028458;28;20037;-77
2023/08/03 08:52:32;;;;;;;3.47;1.08;;;;;;;;;;5027480;28;20400;-77
2023/08/03 08:55:10;;;;;;;1.35;0.50;;;;;;;;;;5026715;28;20040;-77
2023/08/03 08:57:35;;;;;;;5.43;0.93;;;;;;;;;;5025888;28;20033;-77
2023/08/03 09:00:02;;;;;;;4.27;1.03;;;;;;;;;;5028173;28;20408;-77
2023/08/03 09:02:27;;;;;;;2.85;0.70;;;;;;;;;;5030400;28;20280;-77
2023/08/03 09:04:52;;;;;;;3.20;0.70;;;;;;;;;;5036434;28;20040;-77
2023/08/03 09:07:18;;;;;;;2.87;0.53;;;;;;;;;;5035880;28;20065;-77
2023/08/03 09:09:43;;;;;;;2.43;0.40;;;;;;;;;;5027314;28;20280;-77
2023/08/03 09:12:08;;;;;;;3.17;0.67;;;;;;;;;;5028804;28;20328;-77
2023/08/03 09:14:47;;;;;;;3.47;0.43;;;;;;;;;;5026779;28;20771;-77
2023/08/03 09:17:17;;;;;;;3.10;0.50;;;;;;;;;;5026468;28;20029;-77
2023/08/03 09:19:42;;;;;;;1.95;0.45;;;;;;;;;;5029521;28;20036;-77
2023/08/03 09:22:07;;;;;;;3.30;0.40;;;;;;;;;;5024581;28;20477;-77
2023/08/03 09:24:32;;;;;;;7.13;0.80;;;;;;;;;;5029456;28;20511;-77
2023/08/03 09:26:58;;;;;;;3.55;0.43;;;;;;;;;;5028357;28;20284;-77
2023/08/03 09:29:26;;;;;;;3.83;0.70;;;;;;;;;;5028403;28;20036;-77
2023/08/03 09:32:02;;;;;;;2.08;0.60;;;;;;;;;;5028747;28;20029;-77
2023/08/03 09:34:37;;;;;;;3.13;0.50;;;;;;;;;;5033566;28;20037;-77
2023/08/03 09:37:04;;;;;;;2.95;0.50;;;;;;;;;;5033885;28;20033;-77
2023/08/03 09:39:32;;;;;;;2.17;0.43;;;;;;;;;;5028536;28;20045;-77
2023/08/03 09:41:58;;;;;;;3.38;0.40;;;;;;;;;;5031802;28;20087;-77
2023/08/03 09:44:25;;;;;;;2.58;0.70;;;;;;;;;;5036319;28;20026;-77
2023/08/03 09:46:50;;;;;;;2.97;0.40;;;;;;;;;;5034791;28;20032;-77
2023/08/03 09:49:16;;;;;;;3.10;0.70;;;;;;;;;;5034467;28;20037;-77
2023/08/03 09:51:43;;;;;;;2.10;0.40;;;;;;;;;;5028920;28;20637;-77
2023/08/03 09:54:13;;;;;;;6.20;0.70;;;;;;;;;;5033092;28;20041;-77
2023/08/03 09:56:42;;;;;;;4.40;0.47;;;;;;;;;;5031981;28;20116;-78
2023/08/03 09:59:08;;;;;;;2.22;0.60;;;;;;;;;;5029675;28;20041;-78
2023/08/03 10:01:35;;;;;;;2.50;0.57;;;;;;;;;;5031759;28;20025;-77
2023/08/03 10:04:03;;;;;;;1.95;0.40;;;;;;;;;;5033055;28;20037;-77
2023/08/03 10:06:32;;;;;;;2.72;0.65;;;;;;;;;;5036614;28;20040;-79
2023/08/03 10:09:03;;;;;;;1.80;0.50;;;;;;;;;;5034166;28;20439;-78
2023/08/03 10:11:30;;;;;;;2.83;0.73;;;;;;;;;;5036077;28;20041;-79
2023/08/03 10:14:00;;;;;;;3.65;0.88;;;;;;;;;;5036979;28;20066;-79
2023/08/03 10:16:26;;;;;;;3.97;0.63;;;;;;;;;;5034402;28;20045;-79
2023/08/03 10:18:51;;;;;;;5.57;0.80;;;;;;;;;;5034697;28;20033;-78
2023/08/03 10:21:17;;;;;;;2.92;0.50;;;;;;;;;;5036334;28;20033;-79
2023/08/03 10:24:03;;;;;;;1.75;0.40;;;;;;;;;;5040419;28;20112;-79
2023/08/03 10:26:28;;;;;;;2.53;0.63;;;;;;;;;;5035456;28;20109;-79
2023/08/03 10:28:53;;;;;;;1.92;0.80;;;;;;;;;;5035128;28;20045;-78
2023/08/03 10:31:19;;;;;;;2.17;0.63;;;;;;;;;;5038191;28;20037;-79
2023/08/03 10:33:47;;;;;;;3.65;0.82;;;;;;;;;;5042975;28;20276;-79
2023/08/03 10:36:27;;;;;;;2.03;0.50;;;;;;;;;;5041732;28;20029;-78
2023/08/03 10:38:56;;;;;;;1.98;0.57;;;;;;;;;;5036335;28;20030;-79
2023/08/03 10:41:22;;;;;;;2.42;0.47;;;;;;;;;;5042679;28;20029;-78
2023/08/03 10:44:05;;;;;;;4.95;0.70;;;;;;;;;;5038411;28;20030;-78
2023/08/03 10:46:34;;;;;;;1.95;0.32;;;;;;;;;;5032827;28;20030;-78
2023/08/03 10:48:59;;;;;;;3.22;0.73;;;;;;;;;;5034511;28;20477;-78
2023/08/03 10:51:24;;;;;;;2.17;0.57;;;;;;;;;;5032310;28;20036;-78
2023/08/03 10:53:49;;;;;;;3.50;0.50;;;;;;;;;;5034191;28;20081;-79
2023/08/03 10:56:14;;;;;;;6.40;1.13;;;;;;;;;;5037152;28;20026;-79
2023/08/03 10:58:44;;;;;;;3.33;0.57;;;;;;;;;;5032962;28;20290;-79
2023/08/03 11:01:12;;;;;;;2.35;0.63;;;;;;;;;;5031670;28;20109;-78
2023/08/03 11:03:37;;;;;;;2.65;0.35;;;;;;;;;;5038065;28;20029;-78
2023/08/03 11:06:03;;;;;;;3.10;0.80;;;;;;;;;;5035693;28;20026;-79
2023/08/03 11:08:28;;;;;;;2.33;0.65;;;;;;;;;;5034196;28;20276;-79
2023/08/03 11:10:54;;;;;;;0.95;0.30;;;;;;;;;;5042960;28;20119;-79
2023/08/03 11:13:20;;;;;;;1.48;0.47;;;;;;;;;;5039798;28;20057;-79
2023/08/03 11:15:45;;;;;;;1.00;0.50;;;;;;;;;;5043528;28;20105;-79
2023/08/03 11:18:16;;;;;;;2.90;0.38;;;;;;;;;;5034602;28;20036;-78
2023/08/03 11:20:42;;;;;;;1.75;0.40;;;;;;;;;;5035507;28;20056;-79
2023/08/03 11:23:11;;;;;;;1.38;0.30;;;;;;;;;;5033442;28;20049;-78
2023/08/03 11:25:37;;;;;;;1.77;0.55;;;;;;;;;;5037061;28;20686;-78
2023/08/03 11:28:02;;;;;;;2.38;0.40;;;;;;;;;;5033770;28;20025;-78
2023/08/03 11:30:28;;;;;;;1.85;0.50;;;;;;;;;;5037760;28;20534;-79
2023/08/03 11:33:00;;;;;;;0.70;0.30;;;;;;;;;;5040421;28;20476;-79
2023/08/03 11:35:25;;;;;;;;;;;;;;;;;;5037589;28;20506;-79
2023/08/03 11:37:51;;;;;;;2.95;0.38;;;;;;;;;;5037112;28;20395;-79
2023/08/03 11:40:17;;;;;;;1.98;0.28;;;;;;;;;;5034887;28;20029;-79
2023/08/03 11:42:44;;;;;;;2.35;0.40;;;;;;;;;;5035904;28;20045;-79
2023/08/03 11:45:11;;;;;;;1.55;0.30;;;;;;;;;;5035581;28;20117;-78
2023/08/03 11:47:43;;;;;;;4.20;0.50;;;;;;;;;;5037077;28;20550;-79
2023/08/03 11:50:08;;;;;;;0.47;0.30;;;;;;;;;;5037456;28;20095;-79
2023/08/03 11:52:34;;;;;;;1.77;0.40;;;;;;;;;;5039179;28;20037;-79
2023/08/03 11:54:59;;;;;;;1.67;0.40;;;;;;;;;;5032598;28;20288;-79
2023/08/03 12:00:09;;;;;;;2.60;0.50;;;;;;;;;;5032087;28;21137;-79
2023/08/03 12:02:43;;;;;;;2.85;0.43;;;;;;;;;;5035713;28;20037;-79
2023/08/03 12:05:09;;;;;;;1.05;0.40;;;;;;;;;;5036295;28;20489;-79
2023/08/03 12:07:34;;;;;;;4.07;0.70;;;;;;;;;;5036196;28;20061;-79
2023/08/03 12:10:00;;;;;;;3.20;0.70;;;;;;;;;;5050850;28;20029;-79
2023/08/03 12:12:25;;;;;;;5.05;0.47;;;;;;;;;;5035030;28;20373;-79
2023/08/03 12:14:50;;;;;;;3.22;0.85;;;;;;;;;;5036318;28;20025;-79
2023/08/03 12:17:16;;;;;;;0.60;0.30;;;;;;;;;;5040234;28;20087;-78
2023/08/03 12:19:41;;;;;;;1.63;0.40;;;;;;;;;;5046634;28;20276;-79
2023/08/03 12:22:06;;;;;;;0.98;0.28;;;;;;;;;;5047665;28;20029;-78
2023/08/03 12:24:31;;;;;;;6.18;0.65;;;;;;;;;;5041531;28;20030;-78
2023/08/03 12:26:57;;;;;;;2.40;0.45;;;;;;;;;;5044227;28;20038;-78
2023/08/03 12:29:22;;;;;;;3.15;0.90;;;;;;;;;;5040483;28;20091;-78
2023/08/03 12:31:48;;;;;;;2.05;0.68;;;;;;;;;;5039184;28;20048;-78
2023/08/03 12:34:13;;;;;;;1.83;0.60;;;;;;;;;;5040974;28;20499;-78
2023/08/03 12:36:38;;;;;;;1.80;0.50;;;;;;;;;;5037234;28;20057;-79
2023/08/03 12:39:05;;;;;;;1.40;0.40;;;;;;;;;;5038706;28;20030;-79
2023/08/03 12:41:31;;;;;;;2.10;0.50;;;;;;;;;;5039975;28;20300;-79
2023/08/03 12:43:56;;;;;;;1.90;0.70;;;;;;;;;;5036612;28;20026;-78
2023/08/03 12:46:21;;;;;;;2.87;0.60;;;;;;;;;;5035842;28;20029;-78
2023/08/03 12:48:46;;;;;;;3.78;0.70;;;;;;;;;;5041444;28;20756;-79
2023/08/03 12:51:11;;;;;;;2.93;0.47;;;;;;;;;;5041469;28;20036;-78
2023/08/03 12:53:37;;;;;;;2.88;0.40;;;;;;;;;;5039858;28;20268;-79
2023/08/03 12:56:03;;;;;;;1.90;0.40;;;;;;;;;;5038492;28;20029;-78
2023/08/03 12:58:28;;;;;;;3.67;0.75;;;;;;;;;;5035624;28;20049;-78
2023/08/03 13:00:56;;;;;;;1.97;0.70;;;;;;;;;;5039124;28;20038;-78
2023/08/03 13:03:21;;;;;;;3.58;0.50;;;;;;;;;;5039494;28;20269;-78
2023/08/03 13:05:47;;;;;;;1.67;0.40;;;;;;;;;;5038347;28;20508;-78
2023/08/03 13:08:12;;;;;;;0.95;0.30;;;;;;;;;;5035406;28;20635;-79
2023/08/03 13:10:37;;;;;;;3.28;0.70;;;;;;;;;;5037670;28;20038;-79
2023/08/03 13:13:03;;;;;;;2.88;0.73;;;;;;;;;;5036553;28;20061;-79
2023/08/03 13:15:28;;;;;;;2.83;0.50;;;;;;;;;;5037668;28;20034;-78
2023/08/03 13:17:53;;;;;;;1.92;0.50;;;;;;;;;;5035944;28;20291;-78
2023/08/03 13:20:18;;;;;;;1.70;0.38;;;;;;;;;;5036735;28;20026;-78
2023/08/03 13:22:43;;;;;;;3.65;0.45;;;;;;;;;;5038368;28;20057;-78
2023/08/03 13:25:09;;;;;;;2.47;0.23;;;;;;;;;;5036939;28;20029;-78
2023/08/03 13:27:34;;;;;;;2.83;0.22;;;;;;;;;;5036214;28;20273;-78
2023/08/03 13:29:59;;;;;;;1.55;0.30;;;;;;;;;;5036615;28;20025;-78
2023/08/03 13:32:25;;;;;;;1.20;0.30;;;;;;;;;;5038056;28;20033;-78
2023/08/03 13:34:50;;;;;;;1.58;0.35;;;;;;;;;;5036960;28;20279;-78
2023/08/03 13:37:16;;;;;;;2.17;0.52;;;;;;;;;;5031055;28;20025;-76
2023/08/03 13:39:41;;;;;;;1.92;0.50;;;;;;;;;;5024586;28;20088;-76
2023/08/03 13:42:06;;;;;;;3.53;0.50;;;;;;;;;;5023107;28;20041;-76
2023/08/03 13:44:32;;;;;;;1.40;0.40;;;;;;;;;;5024917;28;20283;-76
2023/08/03 13:46:59;;;;;;;5.22;0.50;;;;;;;;;;5023043;28;20041;-76
2023/08/03 13:49:24;;;;;;;4.93;0.52;;;;;;;;;;5025887;28;20029;-76
2023/08/03 13:51:50;;;;;;;2.35;0.40;;;;;;;;;;5032837;28;20391;-76
2023/08/03 13:54:15;;;;;;;1.38;0.38;;;;;;;;;;5023634;28;20120;-76
2023/08/03 13:56:40;;;;;;;4.75;0.40;;;;;;;;;;5023520;28;20026;-76
2023/08/03 13:59:05;;;;;;;0.93;0.30;;;;;;;;;;5023176;28;20048;-76
2023/08/03 14:01:34;;;;;;;1.58;0.30;;;;;;;;;;5025425;28;20116;-76
2023/08/03 14:03:59;;;;;;;3.13;0.50;;;;;;;;;;5026803;28;20033;-75
2023/08/03 14:06:26;;;;;;;1.75;0.38;;;;;;;;;;5025720;28;20033;-76
2023/08/03 14:08:51;;;;;;;3.20;0.65;;;;;;;;;;5030492;28;20037;-76
2023/08/03 14:11:16;;;;;;;4.90;0.88;;;;;;;;;;5021133;28;20034;-76
2023/08/03 14:13:41;;;;;;;0.87;0.37;;;;;;;;;;5029852;28;20494;-75
2023/08/03 14:16:09;;;;;;;1.27;1.10;;;;;;;;;;5028994;28;20322;-76
2023/08/03 14:18:37;;;;;;;4.90;0.70;;;;;;;;;;5020473;28;20639;-76
2023/08/03 14:21:02;;;;;;;5.15;1.65;;;;;;;;;;5025888;28;20029;-76
2023/08/03 14:23:28;;;;;;;1.38;0.93;;;;;;;;;;5016504;28;20079;-76
2023/08/03 14:25:53;;;;;;;1.27;0.40;;;;;;;;;;5024332;28;20029;-76
2023/08/03 14:28:18;;;;;;;2.17;1.97;;;;;;;;;;5020904;28;20285;-76
2023/08/03 14:30:43;;;;;;;1.97;0.60;;;;;;;;;;5022609;28;20299;-76
2023/08/03 14:33:08;;;;;;;1.47;0.37;;;;;;;;;;5024536;28;20330;-76
2023/08/03 14:35:34;;;;;;;0.80;0.30;;;;;;;;;;5029661;28;20337;-75
2023/08/03 14:37:59;;;;;;;2.33;0.30;;;;;;;;;;5022487;28;20490;-75
2023/08/03 14:40:24;;;;;;;2.43;0.17;;;;;;;;;;5020293;28;20810;-75